Time;durP1;ratioP1;P1;durP2;ratioP2;P2;SDS_P1;SDS_P2;PMS_P1;PMS_P2;Temp;Humidity;BMP_temperature;BMP_pressure;BME280_temperature;BME280_humidity;BME280_pressure;Samples;Min_cycle;Max_cycle;Signal;HPM_P1;HPM_P2
2022/06/24 00:01:41;;;;;;;8.73;1.40;;;18.20;99.90;;;;;;4994769;28;20533;-75
2022/06/24 00:04:07;;;;;;;8.43;1.60;;;18.20;99.90;;;;;;4995039;28;20402;-75
2022/06/24 00:06:46;;;;;;;5.17;1.33;;;18.20;99.90;;;;;;4994949;28;20414;-75
2022/06/24 00:09:16;;;;;;;6.03;2.00;;;18.20;99.90;;;;;;4994914;28;20410;-75
2022/06/24 00:11:42;;;;;;;8.30;1.73;;;18.20;99.90;;;;;;4994696;28;20521;-75
2022/06/24 00:14:09;;;;;;;3.13;1.20;;;18.20;99.90;;;;;;4994665;28;20418;-75
2022/06/24 00:16:56;;;;;;;6.00;1.40;;;18.20;99.90;;;;;;4995189;28;20549;-75
2022/06/24 00:19:23;;;;;;;4.00;1.40;;;18.20;99.90;;;;;;4993347;28;20418;-75
2022/06/24 00:22:03;;;;;;;2.73;1.47;;;18.20;99.90;;;;;;4994212;28;20856;-75
2022/06/24 00:24:30;;;;;;;2.20;1.50;;;18.20;99.90;;;;;;4994557;28;20519;-75
2022/06/24 00:26:56;;;;;;;7.83;2.27;;;18.20;99.90;;;;;;4994433;28;20490;-75
2022/06/24 00:29:21;;;;;;;5.10;2.10;;;18.20;99.90;;;;;;4994274;28;20502;-75
2022/06/24 00:32:05;;;;;;;7.13;1.90;;;18.20;99.90;;;;;;4994019;28;20243;-75
2022/06/24 00:34:32;;;;;;;4.63;1.57;;;18.20;99.90;;;;;;4994418;28;20234;-75
2022/06/24 00:36:58;;;;;;;5.83;1.93;;;18.20;99.90;;;;;;4994096;28;20947;-75
2022/06/24 00:39:34;;;;;;;3.33;1.40;;;18.20;99.90;;;;;;4994220;28;20453;-75
2022/06/24 00:42:01;;;;;;;3.80;1.53;;;18.20;99.90;;;;;;4993869;28;20211;-75
2022/06/24 00:44:39;;;;;;;4.00;1.50;;;18.20;99.90;;;;;;4994316;28;20847;-75
2022/06/24 00:47:05;;;;;;;4.73;2.20;;;18.20;99.90;;;;;;4994019;28;20406;-75
2022/06/24 00:49:31;;;;;;;3.00;1.60;;;18.10;99.90;;;;;;4993879;28;20411;-74
2022/06/24 00:51:56;;;;;;;5.13;1.47;;;18.10;99.90;;;;;;4993649;28;21002;-76
2022/06/24 00:54:24;;;;;;;9.57;1.93;;;18.10;99.90;;;;;;4994230;28;20920;-75
2022/06/24 00:56:55;;;;;;;3.33;2.70;;;18.20;99.90;;;;;;4993843;28;20179;-74
2022/06/24 00:59:20;;;;;;;6.30;1.70;;;18.20;99.90;;;;;;4994027;28;20422;-74
2022/06/24 02:32:23;;;;;;;2.93;2.20;;;17.70;99.90;;;;;;5292940;23;20997;-74
2022/06/24 02:34:49;;;;;;;8.07;2.70;;;17.60;99.90;;;;;;4990642;28;20458;-73
2022/06/24 02:37:14;;;;;;;8.43;2.87;;;17.60;99.90;;;;;;4992143;28;20226;-74
2022/06/24 02:39:40;;;;;;;6.37;2.47;;;17.60;99.90;;;;;;4992859;28;20191;-74
2022/06/24 02:42:05;;;;;;;5.10;1.90;;;17.60;99.90;;;;;;4992068;28;20206;-74
2022/06/24 02:44:31;;;;;;;5.40;2.60;;;17.60;99.90;;;;;;4992399;28;20716;-74
2022/06/24 02:46:56;;;;;;;4.70;2.50;;;17.50;99.90;;;;;;4992364;28;20259;-74
2022/06/24 02:49:22;;;;;;;6.10;2.60;;;17.50;99.90;;;;;;4992360;28;20591;-74
2022/06/24 02:51:47;;;;;;;5.00;2.70;;;17.50;99.90;;;;;;4992212;28;20199;-74
2022/06/24 02:54:12;;;;;;;4.00;2.70;;;17.50;99.90;;;;;;4992008;28;20682;-74
2022/06/24 02:56:38;;;;;;;5.27;2.77;;;17.40;99.90;;;;;;4992383;28;20249;-74
2022/06/24 02:59:03;;;;;;;3.73;2.73;;;17.40;99.90;;;;;;4992175;28;20199;-74
2022/06/24 03:01:29;;;;;;;7.73;2.60;;;17.30;99.90;;;;;;4991983;28;20187;-74
2022/06/24 03:03:54;;;;;;;4.20;2.77;;;17.30;99.90;;;;;;4992155;28;20229;-74
2022/06/24 03:06:20;;;;;;;6.40;3.10;;;17.20;99.90;;;;;;4992200;28;20202;-74
2022/06/24 03:08:46;;;;;;;4.50;2.90;;;17.20;99.90;;;;;;4992115;28;20178;-74
2022/06/24 03:11:12;;;;;;;6.93;3.00;;;17.10;99.90;;;;;;4991826;28;20617;-73
2022/06/24 03:13:37;;;;;;;6.27;2.63;;;17.10;99.90;;;;;;4992270;28;20671;-74
2022/06/24 03:16:03;;;;;;;7.10;2.30;;;17.10;99.90;;;;;;4992101;28;20470;-74
2022/06/24 03:18:29;;;;;;;2.37;2.13;;;17.10;99.90;;;;;;4991769;28;20183;-74
2022/06/24 03:20:54;;;;;;;8.53;2.70;;;17.10;99.90;;;;;;4991913;28;20613;-74
2022/06/24 03:23:20;;;;;;;4.30;3.87;;;17.10;99.90;;;;;;4991961;28;20180;-74
2022/06/24 03:25:46;;;;;;;7.03;3.57;;;17.00;99.90;;;;;;4995859;28;20207;-74
2022/06/24 03:28:12;;;;;;;8.00;3.07;;;17.00;99.90;;;;;;4995556;28;20172;-74
2022/06/24 03:30:38;;;;;;;6.83;3.40;;;17.00;99.90;;;;;;4995424;28;20421;-73
2022/06/24 03:33:04;;;;;;;4.53;3.10;;;17.00;99.90;;;;;;4995303;28;20430;-74
2022/06/24 03:35:30;;;;;;;6.90;2.80;;;17.00;99.90;;;;;;4995258;28;20207;-74
2022/06/24 03:37:55;;;;;;;7.70;2.63;;;16.90;99.90;;;;;;4995439;28;20795;-74
2022/06/24 03:40:21;;;;;;;6.10;2.70;;;17.00;99.90;;;;;;4995087;28;20183;-74
2022/06/24 03:42:47;;;;;;;6.83;2.97;;;16.90;99.90;;;;;;4994891;28;20282;-74
2022/06/24 03:45:12;;;;;;;10.37;2.20;;;17.00;99.90;;;;;;4993890;28;20183;-74
2022/06/24 03:47:38;;;;;;;2.53;2.33;;;16.90;99.90;;;;;;4995098;28;20210;-74
2022/06/24 03:50:04;;;;;;;9.20;3.50;;;16.90;99.90;;;;;;4995040;28;20544;-74
2022/06/24 03:52:29;;;;;;;10.57;4.43;;;16.90;99.90;;;;;;4994687;28;20195;-74
2022/06/24 03:54:55;;;;;;;7.13;2.70;;;17.00;99.90;;;;;;4994936;28;20839;-74
2022/06/24 03:57:20;;;;;;;5.10;3.80;;;16.90;99.90;;;;;;4994778;28;20242;-74
2022/06/24 03:59:46;;;;;;;5.07;2.80;;;16.90;99.90;;;;;;4995013;28;20172;-74
2022/06/24 04:02:11;;;;;;;5.27;2.70;;;17.00;99.90;;;;;;4994494;28;20191;-74
2022/06/24 04:04:37;;;;;;;4.67;2.80;;;16.90;99.90;;;;;;4994890;28;20199;-74
2022/06/24 04:07:03;;;;;;;6.43;2.93;;;17.00;99.90;;;;;;4994689;28;20553;-74
2022/06/24 04:09:28;;;;;;;2.80;2.50;;;16.90;99.90;;;;;;4994745;28;20260;-74
2022/06/24 04:11:54;;;;;;;9.10;3.40;;;16.90;99.90;;;;;;4994578;28;20206;-74
2022/06/24 04:15:13;;;;;;;5.00;2.80;;;16.90;99.90;;;;;;4994701;28;20179;-74
2022/06/24 04:17:05;;;;;;;5.60;3.10;;;16.90;99.90;;;;;;4994306;28;20181;-74
2022/06/24 04:19:30;;;;;;;6.40;2.63;;;17.00;99.90;;;;;;4994569;28;20929;-74
2022/06/24 04:21:56;;;;;;;5.13;2.70;;;17.00;99.90;;;;;;4994193;28;20206;-74
2022/06/24 04:24:21;;;;;;;3.40;2.70;;;17.00;99.90;;;;;;4994611;28;20219;-74
2022/06/24 04:26:47;;;;;;;6.63;3.00;;;17.10;99.90;;;;;;4994606;28;20175;-74
2022/06/24 04:29:12;;;;;;;6.40;2.80;;;17.10;99.90;;;;;;4994320;28;20187;-74
2022/06/24 04:31:38;;;;;;;6.13;3.10;;;17.20;99.90;;;;;;4994133;28;20214;-74
2022/06/24 04:34:03;;;;;;;8.23;3.00;;;17.20;99.90;;;;;;4994236;28;20176;-74
2022/06/24 04:36:29;;;;;;;9.30;3.57;;;17.30;99.90;;;;;;4993994;28;20655;-73
2022/06/24 04:38:54;;;;;;;7.13;3.23;;;17.30;99.90;;;;;;4994248;28;20210;-74
2022/06/24 04:41:20;;;;;;;5.87;2.60;;;17.30;99.90;;;;;;4993897;28;20289;-74
2022/06/24 04:43:45;;;;;;;6.37;2.73;;;17.40;99.90;;;;;;4994290;28;20211;-74
2022/06/24 04:46:11;;;;;;;5.00;2.87;;;17.50;99.90;;;;;;4994012;28;20648;-74
2022/06/24 04:48:37;;;;;;;3.73;2.77;;;17.60;99.90;;;;;;4993992;28;20183;-74
2022/06/24 04:51:03;;;;;;;11.40;3.67;;;17.70;99.90;;;;;;4993796;28;20242;-74
2022/06/24 04:53:30;;;;;;;10.17;2.80;;;17.80;99.90;;;;;;4993905;28;20184;-74
2022/06/24 04:55:56;;;;;;;6.30;2.80;;;17.80;99.90;;;;;;4994118;28;20466;-74
2022/06/24 04:58:22;;;;;;;7.70;2.77;;;18.00;99.90;;;;;;4993674;28;20442;-74
2022/06/24 05:00:47;;;;;;;4.33;3.83;;;18.20;99.90;;;;;;4993959;28;20454;-75
2022/06/24 05:03:13;;;;;;;10.80;2.80;;;18.70;99.90;;;;;;4993719;28;20203;-74
2022/06/24 05:05:38;;;;;;;4.90;1.70;;;20.30;99.90;;;;;;4993836;28;20188;-75
2022/06/24 05:08:04;;;;;;;5.70;1.87;;;22.10;99.90;;;;;;4993700;28;20179;-74
2022/06/24 05:10:30;;;;;;;5.07;1.60;;;23.30;99.90;;;;;;4994002;28;20555;-74
2022/06/24 05:12:55;;;;;;;6.67;1.47;;;24.20;99.90;;;;;;4994071;28;20445;-75
2022/06/24 05:15:21;;;;;;;6.33;1.63;;;25.50;99.90;;;;;;4993626;28;20679;-75
2022/06/24 05:17:47;;;;;;;7.63;2.10;;;26.40;99.90;;;;;;4993973;28;20332;-74
2022/06/24 05:20:12;;;;;;;8.00;2.10;;;27.50;99.90;;;;;;4993488;28;20180;-74
2022/06/24 05:22:38;;;;;;;1.70;1.20;;;28.30;99.90;;;;;;4993384;28;20202;-75
2022/06/24 05:25:06;;;;;;;3.67;1.40;;;28.40;99.90;;;;;;4993462;28;20179;-74
2022/06/24 05:27:32;;;;;;;5.20;1.63;;;29.10;99.90;;;;;;4993474;28;20901;-75
2022/06/24 05:29:58;;;;;;;5.60;1.57;;;29.10;99.90;;;;;;4993308;28;20430;-75
2022/06/24 05:32:23;;;;;;;7.67;2.10;;;29.10;99.90;;;;;;4992947;28;21017;-74
2022/06/24 05:34:49;;;;;;;5.33;2.00;;;28.80;99.90;;;;;;4993335;28;20230;-74
2022/06/24 05:37:14;;;;;;;5.20;1.33;;;28.50;99.90;;;;;;4993298;28;20198;-75
2022/06/24 05:39:40;;;;;;;4.10;1.53;;;28.20;99.90;;;;;;4993520;28;20525;-74
2022/06/24 05:42:06;;;;;;;5.23;1.90;;;28.00;99.90;;;;;;4992926;28;20206;-75
2022/06/24 05:44:32;;;;;;;8.10;2.00;;;27.70;99.90;;;;;;4993086;28;20612;-74
2022/06/24 05:46:58;;;;;;;8.37;1.73;;;27.10;99.90;;;;;;4992405;28;20455;-75
2022/06/24 05:49:23;;;;;;;5.83;2.00;;;26.80;99.90;;;;;;4992993;28;20176;-74
2022/06/24 05:51:49;;;;;;;7.50;1.70;;;26.40;99.90;;;;;;4992748;28;20202;-75
2022/06/24 05:56:58;;;;;;;2.23;1.27;;;26.10;99.90;;;;;;4992937;28;20179;-75
2022/06/24 05:59:24;;;;;;;7.73;2.20;;;25.90;99.90;;;;;;4992610;28;20900;-74
2022/06/24 06:01:49;;;;;;;5.13;2.10;;;25.50;99.90;;;;;;4992499;28;20199;-75
2022/06/24 06:04:16;;;;;;;3.70;1.40;;;25.50;99.90;;;;;;4992664;28;20171;-75
2022/06/24 06:06:41;;;;;;;5.67;1.73;;;25.40;99.90;;;;;;4992680;28;20180;-74
2022/06/24 06:09:07;;;;;;;6.10;1.90;;;25.30;99.90;;;;;;4992507;28;20776;-74
2022/06/24 06:11:32;;;;;;;6.43;1.80;;;25.30;99.90;;;;;;4992368;28;20206;-74
2022/06/24 06:13:58;;;;;;;8.33;2.20;;;25.40;99.90;;;;;;4992533;28;20179;-75
2022/06/24 06:16:24;;;;;;;2.93;1.93;;;25.50;99.90;;;;;;4992402;28;20218;-74
2022/06/24 06:18:50;;;;;;;4.30;2.00;;;25.50;99.90;;;;;;4992659;28;20203;-74
2022/06/24 06:21:16;;;;;;;6.83;1.73;;;25.60;99.90;;;;;;4992425;28;20215;-74
2022/06/24 06:23:42;;;;;;;6.67;1.83;;;25.80;99.90;;;;;;4992467;28;20417;-74
2022/06/24 06:26:10;;;;;;;8.40;1.40;;;26.10;99.90;;;;;;4992437;28;20422;-74
2022/06/24 06:28:37;;;;;;;3.07;1.87;;;26.40;99.90;;;;;;4992197;28;20472;-75
2022/06/24 06:31:03;;;;;;;6.17;1.97;;;26.40;99.90;;;;;;4991972;28;20446;-74
2022/06/24 06:33:31;;;;;;;8.40;2.10;;;25.80;99.90;;;;;;4992186;28;20545;-74
2022/06/24 06:36:08;;;;;;;8.80;1.67;;;25.30;99.90;;;;;;4992444;28;20548;-75
2022/06/24 06:38:34;;;;;;;13.17;2.10;;;24.60;99.90;;;;;;4992333;28;20449;-75
2022/06/24 06:41:00;;;;;;;6.97;2.20;;;24.20;99.90;;;;;;4992199;28;20418;-74
2022/06/24 06:43:26;;;;;;;4.83;2.00;;;24.10;99.90;;;;;;4992147;28;20175;-74
2022/06/24 06:45:52;;;;;;;6.50;2.37;;;24.30;99.90;;;;;;4992604;28;20425;-74
2022/06/24 06:48:19;;;;;;;4.93;2.20;;;24.60;99.90;;;;;;4992033;28;20186;-74
2022/06/24 06:50:44;;;;;;;5.33;2.00;;;25.10;99.90;;;;;;4992069;28;20415;-74
2022/06/24 06:53:10;;;;;;;3.00;1.50;;;25.60;99.90;;;;;;4992010;28;20420;-74
2022/06/24 06:55:35;;;;;;;3.53;1.80;;;25.90;99.90;;;;;;4992490;28;20653;-74
2022/06/24 06:58:01;;;;;;;7.17;1.70;;;26.30;99.90;;;;;;4993584;28;20176;-74
2022/06/24 07:00:26;;;;;;;3.07;1.73;;;26.20;99.90;;;;;;4996104;28;20688;-73
2022/06/24 07:02:52;;;;;;;5.57;2.13;;;26.20;99.90;;;;;;4995956;28;20269;-74
2022/06/24 07:05:18;;;;;;;7.27;1.83;;;26.20;99.90;;;;;;4996006;28;20548;-74
2022/06/24 07:07:43;;;;;;;16.70;2.57;;;26.20;99.90;;;;;;4996152;28;20179;-74
2022/06/24 07:10:09;;;;;;;5.23;1.90;;;26.50;99.90;;;;;;4995761;28;20179;-76
2022/06/24 07:12:34;;;;;;;7.77;1.70;;;26.80;99.90;;;;;;4994302;28;20660;-74
2022/06/24 07:15:00;;;;;;;5.50;1.73;;;27.00;99.90;;;;;;4995824;28;20273;-74
2022/06/24 07:17:25;;;;;;;8.73;2.20;;;27.00;99.90;;;;;;4995772;28;20178;-74
2022/06/24 07:19:51;;;;;;;5.37;1.80;;;27.10;99.90;;;;;;4995874;28;20179;-74
2022/06/24 07:22:16;;;;;;;2.87;1.70;;;27.10;99.90;;;;;;4995484;28;20199;-74
2022/06/24 07:24:42;;;;;;;2.63;1.20;;;27.30;99.90;;;;;;4995610;28;20237;-74
2022/06/24 07:27:09;;;;;;;3.03;1.30;;;27.40;99.90;;;;;;4995756;28;20261;-74
2022/06/24 07:29:37;;;;;;;6.23;2.10;;;27.30;99.90;;;;;;4995387;28;20191;-74
2022/06/24 07:32:04;;;;;;;7.57;2.20;;;27.30;99.90;;;;;;4995047;28;20454;-74
2022/06/24 07:34:30;;;;;;;5.90;1.70;;;27.40;99.90;;;;;;4995343;28;20415;-74
2022/06/24 07:36:57;;;;;;;11.07;2.00;;;27.60;99.90;;;;;;4995387;28;20492;-74
2022/06/24 07:39:22;;;;;;;5.47;1.93;;;27.80;99.90;;;;;;4995166;28;20481;-74
2022/06/24 07:41:48;;;;;;;2.20;1.73;;;27.60;99.90;;;;;;4995024;28;20536;-74
2022/06/24 07:44:14;;;;;;;5.93;2.30;;;27.30;99.90;;;;;;4995236;28;20704;-74
2022/06/24 07:46:39;;;;;;;3.67;1.33;;;27.20;99.90;;;;;;4995481;28;20183;-73
2022/06/24 07:49:05;;;;;;;5.20;1.73;;;26.60;99.90;;;;;;4995168;28;20652;-74
2022/06/24 07:51:30;;;;;;;7.10;1.60;;;26.60;99.90;;;;;;4994673;28;20672;-74
2022/06/24 07:53:56;;;;;;;6.37;2.30;;;27.00;99.90;;;;;;4994208;28;20238;-74
2022/06/24 07:59:06;;;;;;;3.70;1.90;;;26.70;99.90;;;;;;4995218;28;20187;-74
2022/06/24 08:01:33;;;;;;;2.60;1.20;;;26.90;99.90;;;;;;4994909;28;20434;-74
2022/06/24 08:03:59;;;;;;;5.20;1.80;;;27.00;99.90;;;;;;4994813;28;20176;-74
2022/06/24 08:06:25;;;;;;;2.40;1.70;;;27.20;99.90;;;;;;4994550;28;20481;-74
2022/06/24 08:08:50;;;;;;;3.30;1.67;;;27.10;99.90;;;;;;4994593;28;20430;-74
2022/06/24 08:11:16;;;;;;;3.43;1.50;;;27.60;99.90;;;;;;4993838;28;20484;-74
2022/06/24 08:13:42;;;;;;;4.23;1.80;;;27.70;99.90;;;;;;4993378;28;20262;-74
2022/06/24 08:16:07;;;;;;;6.43;1.67;;;27.80;99.90;;;;;;4994503;28;20754;-74
2022/06/24 08:18:33;;;;;;;7.87;1.37;;;28.50;99.90;;;;;;4994684;28;20302;-74
2022/06/24 08:20:59;;;;;;;5.17;1.60;;;28.60;99.90;;;;;;4995310;28;20195;-74
2022/06/24 08:23:24;;;;;;;2.60;1.40;;;29.20;99.90;;;;;;4994918;28;20183;-74
2022/06/24 08:25:50;;;;;;;5.40;1.40;;;29.50;99.90;;;;;;4994747;28;20180;-74
2022/06/24 08:28:15;;;;;;;3.30;1.20;;;29.80;99.90;;;;;;4994259;28;20269;-74
2022/06/24 08:30:41;;;;;;;2.83;1.20;;;30.40;99.90;;;;;;4993937;28;20187;-74
2022/06/24 08:33:06;;;;;;;1.97;1.20;;;30.70;99.90;;;;;;4994008;28;20198;-74
2022/06/24 08:35:32;;;;;;;5.07;1.10;;;30.70;99.90;;;;;;4994376;28;20203;-74
2022/06/24 08:37:58;;;;;;;1.97;1.60;;;30.50;99.90;;;;;;4994123;28;20677;-74
2022/06/24 08:40:26;;;;;;;1.63;1.53;;;30.60;99.90;;;;;;4993940;28;20171;-73
2022/06/24 08:42:54;;;;;;;3.27;1.63;;;30.10;99.90;;;;;;4993811;28;20437;-74
2022/06/24 08:45:20;;;;;;;1.60;1.50;;;30.00;99.90;;;;;;4993961;28;20485;-74
2022/06/24 08:47:47;;;;;;;4.07;1.20;;;29.40;99.90;;;;;;4993814;28;20406;-75
2022/06/24 08:50:13;;;;;;;4.60;1.97;;;29.20;99.90;;;;;;4993984;28;20258;-74
2022/06/24 08:52:47;;;;;;;2.40;1.43;;;28.90;99.90;;;;;;4993513;28;20474;-74
2022/06/24 08:55:16;;;;;;;4.00;1.50;;;28.80;99.90;;;;;;4993884;28;20465;-75
2022/06/24 08:57:41;;;;;;;1.53;1.27;;;28.20;99.90;;;;;;4994038;28;20797;-74
2022/06/24 09:00:08;;;;;;;7.13;1.67;;;28.00;99.90;;;;;;4993788;28;20418;-74
2022/06/24 09:02:33;;;;;;;2.90;1.60;;;27.60;99.90;;;;;;4993730;28;20278;-75
2022/06/24 09:04:59;;;;;;;4.10;1.60;;;27.40;99.90;;;;;;4993908;28;20568;-74
2022/06/24 09:07:25;;;;;;;3.90;1.90;;;27.00;99.90;;;;;;4993522;28;20660;-75
2022/06/24 09:10:04;;;;;;;2.87;1.97;;;26.60;99.90;;;;;;4993590;28;20445;-75
2022/06/24 09:12:36;;;;;;;6.50;2.50;;;26.40;99.90;;;;;;4993161;28;20438;-74
2022/06/24 09:15:03;;;;;;;5.20;2.00;;;26.40;99.90;;;;;;4993735;28;20461;-75
2022/06/24 09:17:30;;;;;;;10.20;2.70;;;26.40;99.90;;;;;;4993310;28;20414;-74
2022/06/24 09:20:12;;;;;;;6.20;2.57;;;26.40;99.90;;;;;;4993811;28;20921;-75
2022/06/24 09:22:38;;;;;;;14.60;3.30;;;26.10;99.90;;;;;;4992164;28;20449;-74
2022/06/24 09:25:04;;;;;;;10.00;2.43;;;26.20;99.90;;;;;;4993254;28;20414;-75
2022/06/24 09:27:30;;;;;;;4.53;1.83;;;27.10;99.90;;;;;;4993268;28;20410;-74
2022/06/24 09:29:56;;;;;;;5.13;1.43;;;28.20;99.90;;;;;;4993219;28;20421;-74
2022/06/24 09:32:21;;;;;;;6.20;1.90;;;28.60;99.90;;;;;;4992722;28;20269;-74
2022/06/24 09:35:07;;;;;;;4.63;1.93;;;29.10;99.90;;;;;;4993018;28;20187;-74
2022/06/24 09:37:44;;;;;;;4.47;2.17;;;29.80;99.90;;;;;;4993164;28;20230;-75
2022/06/24 09:40:22;;;;;;;7.37;1.67;;;30.70;99.90;;;;;;4992894;28;20492;-75
2022/06/24 09:42:56;;;;;;;7.03;2.03;;;30.90;99.90;;;;;;4992893;28;20444;-75
2022/06/24 09:45:23;;;;;;;4.43;2.10;;;30.40;99.90;;;;;;4992871;28;20423;-74
2022/06/24 09:47:50;;;;;;;7.13;1.70;;;30.50;99.90;;;;;;4992916;28;20506;-75
2022/06/24 09:50:20;;;;;;;2.47;1.50;;;30.40;99.90;;;;;;4992890;28;20410;-75
2022/06/24 09:52:46;;;;;;;7.30;1.93;;;30.50;99.90;;;;;;4992692;28;20430;-75
2022/06/24 09:55:12;;;;;;;3.50;1.50;;;30.40;99.90;;;;;;4991225;28;20465;-75
2022/06/24 09:57:39;;;;;;;2.90;1.80;;;31.10;99.90;;;;;;4991528;28;20176;-75
2022/06/24 10:02:51;;;;;;;3.23;2.20;;;30.90;99.90;;;;;;4993189;28;21328;-75
2022/06/24 10:05:18;;;;;;;6.17;2.20;;;30.80;99.90;;;;;;4992869;28;20514;-75
2022/06/24 10:07:47;;;;;;;3.70;1.53;;;31.10;99.90;;;;;;4992582;28;20497;-75
2022/06/24 10:10:15;;;;;;;3.93;1.70;;;31.10;99.90;;;;;;4992701;28;20425;-75
2022/06/24 10:12:49;;;;;;;5.60;1.57;;;30.40;99.90;;;;;;4992396;28;20868;-75
2022/06/24 10:15:16;;;;;;;5.20;2.17;;;30.00;99.90;;;;;;4992329;28;20837;-74
2022/06/24 10:17:44;;;;;;;2.93;2.20;;;29.10;99.90;;;;;;4992457;28;20490;-75
2022/06/24 10:20:14;;;;;;;3.47;2.10;;;28.50;99.90;;;;;;4992455;28;20837;-75
2022/06/24 10:22:45;;;;;;;5.90;2.20;;;28.10;99.90;;;;;;4992259;28;20453;-75
2022/06/24 10:25:11;;;;;;;2.70;2.20;;;27.70;99.90;;;;;;4992321;28;20411;-75
2022/06/24 10:27:57;;;;;;;6.33;2.40;;;27.60;99.90;;;;;;4992425;28;20414;-74
2022/06/24 10:30:57;;;;;;;4.47;2.10;;;27.90;99.90;;;;;;4992402;28;20175;-75
2022/06/24 10:33:26;;;;;;;3.70;1.70;;;29.00;99.90;;;;;;4991747;28;20475;-75
2022/06/24 10:36:06;;;;;;;4.60;2.00;;;29.90;99.90;;;;;;4992167;28;20454;-75
2022/06/24 10:38:40;;;;;;;4.47;1.77;;;30.80;99.90;;;;;;4992020;28;20421;-75
2022/06/24 10:41:07;;;;;;;3.23;2.03;;;31.50;99.90;;;;;;4991916;28;20426;-75
2022/06/24 10:43:38;;;;;;;3.43;2.17;;;31.50;99.90;;;;;;4992278;28;20415;-75
2022/06/24 10:46:24;;;;;;;1.77;1.30;;;30.90;99.90;;;;;;4992327;28;20413;-75
2022/06/24 10:48:49;;;;;;;4.00;2.43;;;30.20;99.90;;;;;;4991879;28;20947;-75
2022/06/24 10:51:17;;;;;;;2.60;1.80;;;29.50;99.90;;;;;;4991905;28;20450;-74
2022/06/24 10:54:06;;;;;;;13.53;2.70;;;28.90;99.90;;;;;;4992004;28;20600;-74
2022/06/24 10:56:49;;;;;;;3.67;2.00;;;28.70;99.90;;;;;;4992126;28;21001;-75
2022/06/24 10:59:18;;;;;;;4.83;1.93;;;29.00;99.90;;;;;;4992035;28;20465;-75
2022/06/24 11:01:45;;;;;;;4.97;1.97;;;28.90;99.90;;;;;;4991810;28;20455;-75
2022/06/24 11:04:17;;;;;;;5.03;2.23;;;28.90;99.90;;;;;;4991758;28;20442;-75
2022/06/24 11:07:15;;;;;;;4.73;2.00;;;28.50;99.90;;;;;;4991939;28;20406;-74
2022/06/24 11:09:41;;;;;;;3.40;1.93;;;28.10;99.90;;;;;;4990798;28;20468;-75
2022/06/24 11:12:28;;;;;;;4.77;2.40;;;28.00;99.90;;;;;;4992132;28;21076;-75
2022/06/24 11:14:53;;;;;;;2.90;2.10;;;27.90;99.90;;;;;;4992115;28;20171;-75
2022/06/24 11:17:25;;;;;;;2.87;1.50;;;27.90;99.90;;;;;;4991979;28;20440;-75
2022/06/24 11:19:52;;;;;;;5.90;1.80;;;28.70;99.90;;;;;;4991737;28;20172;-74
2022/06/24 11:22:19;;;;;;;3.57;1.50;;;29.20;99.90;;;;;;4991386;28;20442;-75
2022/06/24 11:24:47;;;;;;;2.40;1.53;;;29.30;99.90;;;;;;4991622;28;20410;-75
2022/06/24 11:27:13;;;;;;;2.03;1.80;;;29.00;99.90;;;;;;4990350;28;20508;-75
2022/06/24 11:29:56;;;;;;;4.73;1.40;;;28.90;99.90;;;;;;4991739;28;20956;-75
2022/06/24 11:32:23;;;;;;;3.57;1.57;;;28.80;99.90;;;;;;4991307;28;20214;-74
2022/06/24 11:34:49;;;;;;;3.90;1.83;;;28.50;99.90;;;;;;4991489;28;20929;-75
2022/06/24 11:37:20;;;;;;;2.60;1.67;;;28.10;99.90;;;;;;4991423;28;20407;-75
2022/06/24 11:39:46;;;;;;;2.90;1.40;;;27.50;99.90;;;;;;4991926;28;20167;-75
2022/06/24 11:42:15;;;;;;;4.83;1.53;;;27.30;99.90;;;;;;4991277;28;20521;-75
2022/06/24 11:44:41;;;;;;;2.07;1.50;;;27.00;99.90;;;;;;4992237;28;20417;-75
2022/06/24 11:47:07;;;;;;;3.93;1.53;;;26.60;99.90;;;;;;4995023;28;20502;-75
2022/06/24 11:49:34;;;;;;;4.43;2.00;;;26.50;99.90;;;;;;4995027;28;20943;-73
2022/06/24 11:52:01;;;;;;;3.07;1.80;;;26.40;99.90;;;;;;4994983;28;20445;-75
2022/06/24 11:54:28;;;;;;;4.93;1.50;;;26.20;99.90;;;;;;4994967;28;20473;-75
2022/06/24 11:56:54;;;;;;;5.37;1.70;;;26.10;99.90;;;;;;4994762;28;20489;-75
2022/06/24 11:59:21;;;;;;;3.83;1.83;;;26.10;99.90;;;;;;4993552;28;20438;-75
2022/06/24 12:01:49;;;;;;;3.30;1.53;;;26.00;99.90;;;;;;4994536;28;20437;-75
2022/06/24 12:04:15;;;;;;;2.47;1.47;;;26.00;99.90;;;;;;4994735;28;20827;-75
2022/06/24 12:06:42;;;;;;;12.00;2.70;;;25.90;99.90;;;;;;4994919;28;20449;-75
2022/06/24 12:09:09;;;;;;;9.70;1.93;;;25.80;99.90;;;;;;4994511;28;20462;-75
2022/06/24 12:11:39;;;;;;;6.50;1.97;;;25.70;99.90;;;;;;4994375;28;20439;-75
2022/06/24 12:14:07;;;;;;;6.73;2.20;;;25.40;99.90;;;;;;4994504;28;20911;-75
2022/06/24 12:17:06;;;;;;;3.10;1.60;;;25.30;99.90;;;;;;4994486;28;20453;-75
2022/06/24 12:19:35;;;;;;;3.07;1.93;;;25.50;99.90;;;;;;4994439;28;20826;-75
2022/06/24 12:22:14;;;;;;;6.10;1.90;;;25.60;99.90;;;;;;4993840;28;20801;-75
2022/06/24 12:24:40;;;;;;;2.50;1.40;;;25.60;99.90;;;;;;4993160;28;20418;-75
2022/06/24 12:27:07;;;;;;;4.43;1.40;;;25.60;99.90;;;;;;4994508;28;20406;-75
2022/06/24 12:29:37;;;;;;;2.63;1.10;;;25.40;99.90;;;;;;4996613;28;20421;-75
2022/06/24 12:32:05;;;;;;;1.57;1.23;;;25.30;99.90;;;;;;4992487;28;20461;-75
2022/06/24 12:34:38;;;;;;;2.37;1.80;;;25.10;99.90;;;;;;4994400;28;20406;-75
2022/06/24 12:37:10;;;;;;;1.10;1.00;;;25.00;99.90;;;;;;4994103;28;20473;-75
2022/06/24 12:39:38;;;;;;;2.10;1.57;;;24.80;99.90;;;;;;4994354;28;20411;-75
2022/06/24 12:42:05;;;;;;;2.13;1.50;;;24.70;99.90;;;;;;4993929;28;20681;-75
2022/06/24 12:44:44;;;;;;;2.30;1.73;;;24.50;99.90;;;;;;4994237;28;20422;-75
2022/06/24 12:52:55;;;;;;;4.13;1.30;;;24.00;99.90;;;;;;4993940;28;20430;-76
2022/06/24 12:55:20;;;;;;;4.40;3.07;;;23.80;99.90;;;;;;4994012;28;20468;-75
2022/06/24 12:57:46;;;;;;;3.10;2.10;;;23.70;99.90;;;;;;4994005;28;20485;-75
2022/06/24 13:00:14;;;;;;;2.00;1.90;;;23.50;99.90;;;;;;4993802;28;20175;-75
2022/06/24 13:02:45;;;;;;;2.50;1.70;;;23.40;99.90;;;;;;4993598;28;20192;-75
2022/06/24 13:05:11;;;;;;;8.07;1.90;;;23.40;99.90;;;;;;4993606;28;20406;-75
2022/06/24 13:07:37;;;;;;;1.50;1.40;;;23.30;99.90;;;;;;4993865;28;20414;-76
2022/06/24 13:10:04;;;;;;;2.57;2.13;;;23.20;99.90;;;;;;4993612;28;20765;-75
2022/06/24 13:12:30;;;;;;;1.77;1.67;;;23.20;99.90;;;;;;4993418;28;20816;-75
2022/06/24 13:14:56;;;;;;;4.63;2.13;;;23.20;99.90;;;;;;4993410;28;20426;-75
2022/06/24 13:17:21;;;;;;;1.90;1.80;;;23.10;99.90;;;;;;4993570;28;20414;-75
2022/06/24 13:19:47;;;;;;;9.73;2.03;;;23.10;99.90;;;;;;4993389;28;20660;-75
2022/06/24 13:22:13;;;;;;;3.93;2.00;;;23.10;99.90;;;;;;4993147;28;20198;-75
2022/06/24 13:24:38;;;;;;;5.87;1.80;;;23.00;99.90;;;;;;4993394;28;20915;-75
2022/06/24 13:27:05;;;;;;;4.83;1.77;;;23.00;99.90;;;;;;4993652;28;20258;-75
2022/06/24 13:29:31;;;;;;;3.03;1.80;;;23.10;99.90;;;;;;4993103;28;20529;-75
2022/06/24 13:31:57;;;;;;;2.50;1.93;;;23.10;99.90;;;;;;4992919;28;20537;-75
2022/06/24 13:34:23;;;;;;;12.10;1.90;;;23.20;99.90;;;;;;4993066;28;20438;-75
2022/06/24 13:36:48;;;;;;;8.90;1.60;;;23.10;99.90;;;;;;4993188;28;20462;-75
2022/06/24 13:39:14;;;;;;;2.10;2.00;;;23.00;99.90;;;;;;4992927;28;20229;-75
2022/06/24 13:41:40;;;;;;;3.00;1.43;;;23.00;99.90;;;;;;4993057;28;20363;-75
2022/06/24 13:44:06;;;;;;;5.10;2.13;;;22.90;99.90;;;;;;4993242;28;20282;-76
2022/06/24 13:46:32;;;;;;;2.10;1.93;;;22.80;99.90;;;;;;4992951;28;20183;-75
2022/06/24 13:48:58;;;;;;;4.33;2.27;;;22.70;99.90;;;;;;4992982;28;20472;-75
2022/06/24 13:51:24;;;;;;;2.53;2.13;;;22.60;99.90;;;;;;4992712;28;20434;-75
2022/06/24 13:53:50;;;;;;;7.93;2.10;;;22.50;99.90;;;;;;4992932;28;20865;-75
2022/06/24 13:56:15;;;;;;;2.13;1.93;;;22.50;99.90;;;;;;4992660;28;20211;-76
2022/06/24 13:58:41;;;;;;;5.13;2.63;;;22.40;99.90;;;;;;4993155;28;20180;-75
2022/06/24 14:01:07;;;;;;;1.90;1.80;;;22.30;99.90;;;;;;4992464;28;20282;-76
2022/06/24 14:03:32;;;;;;;3.00;2.37;;;22.30;99.90;;;;;;4992825;28;20234;-76
2022/06/24 14:05:59;;;;;;;2.23;2.10;;;22.30;99.90;;;;;;4993074;28;20206;-76
2022/06/24 14:08:25;;;;;;;5.13;2.53;;;22.30;99.90;;;;;;4992047;28;20663;-76
2022/06/24 14:10:51;;;;;;;5.10;2.47;;;22.30;99.90;;;;;;4992579;28;20415;-75
2022/06/24 14:13:16;;;;;;;2.87;2.10;;;22.30;99.90;;;;;;4992745;28;20418;-75
2022/06/24 14:15:42;;;;;;;9.63;2.10;;;22.30;99.90;;;;;;4992555;28;20301;-75
2022/06/24 14:18:07;;;;;;;2.00;1.67;;;22.20;99.90;;;;;;4992686;28;20176;-76
2022/06/24 14:20:33;;;;;;;2.80;2.23;;;22.30;99.90;;;;;;4992320;28;20180;-74
2022/06/24 14:25:42;;;;;;;3.63;2.83;;;22.00;99.90;;;;;;4992643;28;20182;-75
2022/06/24 14:28:08;;;;;;;3.80;2.40;;;21.90;99.90;;;;;;4992496;28;20418;-75
2022/06/24 14:30:33;;;;;;;2.87;2.67;;;21.80;99.90;;;;;;4992247;28;20648;-75
2022/06/24 14:32:59;;;;;;;2.13;1.97;;;21.70;99.90;;;;;;4992147;28;20402;-76
2022/06/24 14:35:25;;;;;;;2.33;2.13;;;21.60;99.90;;;;;;4992439;28;20195;-75